Arlington, Illinois
Current Conditions -  °F | °C
As of 2:35 PM on Friday 28 Nov 2014 (Local Time) from KVYS Reporting Station
Clear Clear  
Wind Chill: 28°   Ceiling: Unl
Heat Index: 36°   Visibility: 10mi
Dew Point: 30°   Wind: 12mph
Humidity: 80%   Direction: 190°S
Pressure: 29.97"   Gusts: NA
Location:  41.47°N, 89.25°W
Report Text: KVYS 282035Z AUTO 19010KT 10SM CLR 02/M01 A2997 RMK AO2 T00211011
Loading
Personal Weather Stations






























Interactive Weather Map New forecast layout! Learn more

10-Day Weather Forecast

Advertisements
Track Severe Weather on mobile